createdAt,value
2018-12-21T00:01:50.357Z,2.97
2018-12-21T00:04:20.256Z,2.00
2018-12-21T00:06:50.173Z,1.93
2018-12-21T00:09:20.086Z,1.97
2018-12-21T00:11:50.001Z,1.60
2018-12-21T00:14:19.950Z,2.03
2018-12-21T00:16:49.842Z,4.83
2018-12-21T00:19:19.777Z,8.23
2018-12-21T00:21:49.720Z,1.23
2018-12-21T00:24:19.677Z,2.53
2018-12-21T00:26:49.497Z,1.60
2018-12-21T00:29:19.517Z,5.30
2018-12-21T00:31:54.205Z,2.47
2018-12-21T00:34:29.141Z,5.70
2018-12-21T00:37:04.033Z,1.73
2018-12-21T00:39:38.991Z,1.50
2018-12-21T00:42:15.563Z,1.50
2018-12-21T00:44:45.728Z,1.37
2018-12-21T00:47:15.686Z,1.57
2018-12-21T00:49:45.656Z,1.07
2018-12-21T00:52:15.914Z,1.67
2018-12-21T00:54:45.797Z,1.97
2018-12-21T00:57:15.739Z,2.10
2018-12-21T00:59:45.629Z,0.93
2018-12-21T01:02:15.541Z,1.23
2018-12-21T01:04:45.373Z,0.43
2018-12-21T01:07:15.368Z,0.70
2018-12-21T01:09:45.318Z,2.00
2018-12-21T01:12:15.258Z,0.73
2018-12-21T01:14:45.234Z,0.60
2018-12-21T01:17:15.088Z,0.47
2018-12-21T01:19:45.049Z,1.70
2018-12-21T01:22:14.995Z,1.10
2018-12-21T01:24:44.980Z,0.30
2018-12-21T01:27:14.904Z,0.60
2018-12-21T01:29:44.724Z,0.87
2018-12-21T01:32:14.928Z,0.10
2018-12-21T01:34:44.845Z,1.00
2018-12-21T01:37:14.695Z,0.40
2018-12-21T01:39:44.673Z,0.30
2018-12-21T01:42:14.517Z,1.23
2018-12-21T01:44:44.923Z,0.53
2018-12-21T01:47:14.837Z,0.20
2018-12-21T01:49:44.773Z,0.83
2018-12-21T01:52:14.796Z,0.50
2018-12-21T01:54:44.940Z,0.20
2018-12-21T01:57:14.823Z,0.33
2018-12-21T01:59:44.842Z,1.03
2018-12-21T02:02:14.834Z,0.70
2018-12-21T02:04:44.640Z,0.97
2018-12-21T02:07:14.556Z,1.17
2018-12-21T02:09:44.472Z,0.30
2018-12-21T02:12:14.401Z,0.67
2018-12-21T02:14:44.231Z,1.60
2018-12-21T02:17:14.249Z,0.97
2018-12-21T02:19:44.264Z,1.43
2018-12-21T02:22:14.213Z,0.90
2018-12-21T02:24:44.169Z,2.40
2018-12-21T02:27:13.981Z,0.63
2018-12-21T02:29:44.005Z,1.67
2018-12-21T02:32:13.941Z,2.87
2018-12-21T02:34:43.889Z,1.80
2018-12-21T02:37:13.845Z,1.60
2018-12-21T02:39:43.797Z,0.70
2018-12-21T02:42:13.882Z,1.43
2018-12-21T02:44:43.824Z,1.57
2018-12-21T02:47:13.771Z,0.50
2018-12-21T02:49:43.753Z,1.77
2018-12-21T02:52:13.641Z,1.03
2018-12-21T02:54:43.557Z,1.03
2018-12-21T02:57:13.738Z,4.17
2018-12-21T02:59:43.616Z,3.03
2018-12-21T03:02:13.614Z,1.83
2018-12-21T03:04:43.558Z,0.40
2018-12-21T03:07:13.472Z,0.73
2018-12-21T03:09:43.461Z,0.67
2018-12-21T03:12:13.272Z,1.07
2018-12-21T03:14:43.316Z,2.93
2018-12-21T03:17:13.263Z,0.80
2018-12-21T03:19:43.448Z,1.53
2018-12-21T03:22:14.916Z,2.07
2018-12-21T03:24:45.232Z,1.50
2018-12-21T03:27:15.320Z,2.30
2018-12-21T03:29:45.264Z,2.50
2018-12-21T03:32:15.354Z,1.73
2018-12-21T03:34:45.374Z,2.83
2018-12-21T03:37:15.337Z,2.00
2018-12-21T03:39:45.261Z,4.03
2018-12-21T03:42:15.424Z,2.73
2018-12-21T03:44:45.410Z,2.67
2018-12-21T03:47:15.357Z,1.80
2018-12-21T03:49:45.345Z,1.93
2018-12-21T03:52:24.036Z,2.30
2018-12-21T03:54:47.251Z,1.53
2018-12-21T03:57:17.330Z,1.20
2018-12-21T03:59:47.186Z,1.47
2018-12-21T04:02:17.127Z,3.77
2018-12-21T04:04:47.017Z,1.23
2018-12-21T04:07:16.929Z,1.67
2018-12-21T04:09:46.883Z,2.80
2018-12-21T04:12:16.788Z,2.27
2018-12-21T04:14:46.782Z,1.33
2018-12-21T04:17:16.588Z,2.13
2018-12-21T04:19:46.521Z,3.20
2018-12-21T04:22:16.447Z,1.10
2018-12-21T04:24:46.450Z,0.90
2018-12-21T04:27:16.257Z,1.37
2018-12-21T04:29:46.176Z,1.00
2018-12-21T04:32:16.216Z,3.13
2018-12-21T04:34:46.201Z,2.73
2018-12-21T04:37:16.141Z,1.53
2018-12-21T04:39:46.036Z,1.53
2018-12-21T04:42:16.050Z,2.77
2018-12-21T04:44:45.994Z,2.70
2018-12-21T04:47:15.895Z,0.87
2018-12-21T04:49:45.820Z,0.40
2018-12-21T04:52:15.710Z,1.10
2018-12-21T04:54:45.637Z,1.03
2018-12-21T04:57:15.669Z,0.97
2018-12-21T04:59:45.633Z,0.57
2018-12-21T05:02:15.569Z,0.40
2018-12-21T05:04:45.385Z,0.87
2018-12-21T05:07:15.297Z,1.00
2018-12-21T05:09:45.137Z,0.30
2018-12-21T05:12:15.141Z,0.23
2018-12-21T05:14:44.940Z,0.67
2018-12-21T05:17:14.858Z,0.33
2018-12-21T05:19:44.777Z,1.20
2018-12-21T05:22:14.643Z,0.40
2018-12-21T05:24:44.601Z,0.40
2018-12-21T05:27:14.445Z,0.47
2018-12-21T05:29:44.428Z,1.97
2018-12-21T05:32:14.380Z,0.83
2018-12-21T05:34:44.426Z,0.53
2018-12-21T05:37:14.415Z,0.57
2018-12-21T05:39:44.301Z,0.30
2018-12-21T05:42:14.209Z,0.80
2018-12-21T05:44:44.152Z,0.60
2018-12-21T05:47:14.051Z,0.70
2018-12-21T05:49:44.092Z,0.63
2018-12-21T05:52:13.992Z,0.80
2018-12-21T05:54:43.989Z,0.40
2018-12-21T05:57:13.852Z,0.63
2018-12-21T05:59:43.822Z,1.23
2018-12-21T06:02:13.712Z,0.93
2018-12-21T06:04:43.652Z,0.57
2018-12-21T06:07:13.499Z,1.87
2018-12-21T06:09:43.384Z,0.70
2018-12-21T06:12:13.294Z,0.63
2018-12-21T06:14:43.210Z,0.40
2018-12-21T06:17:13.124Z,1.03
2018-12-21T06:19:43.144Z,1.53
2018-12-21T06:22:12.952Z,1.50
2018-12-21T06:24:42.868Z,0.83
2018-12-21T06:27:12.785Z,1.60
2018-12-21T06:29:42.802Z,2.20
2018-12-21T06:32:12.721Z,1.87
2018-12-21T06:34:42.534Z,2.97
2018-12-21T06:37:12.473Z,0.70
2018-12-21T06:39:42.471Z,1.60
2018-12-21T06:42:12.380Z,3.10
2018-12-21T06:44:42.451Z,1.00
2018-12-21T06:47:12.538Z,2.60
2018-12-21T06:49:42.461Z,2.27
2018-12-21T06:52:12.449Z,1.30
2018-12-21T06:54:42.260Z,1.43
2018-12-21T06:57:12.178Z,0.63
2018-12-21T06:59:42.200Z,1.90
2018-12-21T07:02:12.033Z,1.80
2018-12-21T07:04:42.145Z,1.47
2018-12-21T07:07:12.168Z,2.07
2018-12-21T07:09:42.117Z,1.07
2018-12-21T07:12:12.073Z,2.87
2018-12-21T07:14:41.890Z,1.27
2018-12-21T07:17:11.801Z,0.63
2018-12-21T07:19:41.718Z,2.80
2018-12-21T07:22:11.631Z,1.73
2018-12-21T07:24:41.446Z,1.23
2018-12-21T07:27:11.359Z,1.97
2018-12-21T07:29:42.294Z,1.87
2018-12-21T07:32:12.208Z,1.70
2018-12-21T07:34:42.026Z,1.70
2018-12-21T07:37:11.937Z,2.80
2018-12-21T07:39:41.988Z,2.77
2018-12-21T07:42:11.873Z,1.03
2018-12-21T07:44:41.888Z,2.13
2018-12-21T07:47:11.704Z,1.90
2018-12-21T07:49:41.746Z,1.30
2018-12-21T07:52:11.781Z,3.47
2018-12-21T07:54:41.685Z,4.03
2018-12-21T07:57:11.669Z,2.07
2018-12-21T07:59:41.717Z,1.27
2018-12-21T08:02:11.704Z,2.10
2018-12-21T08:04:41.645Z,1.20
2018-12-21T08:07:11.593Z,1.27
2018-12-21T08:09:42.474Z,2.67
2018-12-21T08:12:12.288Z,3.07
2018-12-21T08:14:42.227Z,4.37
2018-12-21T08:17:12.117Z,2.53
2018-12-21T08:19:42.161Z,2.87
2018-12-21T08:22:12.149Z,3.07
2018-12-21T08:24:42.082Z,1.57
2018-12-21T08:27:12.089Z,2.47
2018-12-21T08:29:41.997Z,1.43
2018-12-21T08:32:11.913Z,3.03
2018-12-21T08:34:41.825Z,2.70
2018-12-21T08:37:11.669Z,3.07
2018-12-21T08:39:41.670Z,2.00
2018-12-21T08:42:11.464Z,1.43
2018-12-21T08:44:41.385Z,3.37
2018-12-21T08:47:11.309Z,1.73
2018-12-21T08:49:41.317Z,3.07
2018-12-21T08:52:11.261Z,4.90
2018-12-21T08:54:41.208Z,4.17
2018-12-21T08:57:11.192Z,2.33
2018-12-21T08:59:41.085Z,3.53
2018-12-21T09:02:11.021Z,1.53
2018-12-21T09:04:40.917Z,3.80
2018-12-21T09:07:10.854Z,3.10
2018-12-21T09:09:40.846Z,3.37
2018-12-21T09:12:11.043Z,2.57
2018-12-21T09:14:41.083Z,4.63
2018-12-21T09:17:10.895Z,5.43
2018-12-21T09:19:40.908Z,2.10
2018-12-21T09:22:10.852Z,4.43
2018-12-21T09:24:40.744Z,4.10
2018-12-21T09:27:10.657Z,2.87
2018-12-21T09:29:40.506Z,2.53
2018-12-21T09:32:10.485Z,2.33
2018-12-21T09:34:40.428Z,3.83
2018-12-21T09:37:10.373Z,3.90
2018-12-21T09:39:43.506Z,4.93
2018-12-21T09:42:13.381Z,3.97
2018-12-21T09:44:43.441Z,5.30
2018-12-21T09:47:13.310Z,3.80
2018-12-21T09:49:44.322Z,4.33
2018-12-21T09:52:14.309Z,3.97
2018-12-21T09:54:44.119Z,1.70
2018-12-21T09:57:14.040Z,2.87
2018-12-21T09:59:44.084Z,4.50
2018-12-21T10:02:14.649Z,3.70
2018-12-21T10:04:44.559Z,4.97
2018-12-21T10:07:14.529Z,4.37
2018-12-21T10:09:44.333Z,4.43
2018-12-21T10:12:14.297Z,4.27
2018-12-21T10:14:44.189Z,4.17
2018-12-21T10:17:14.173Z,3.43
2018-12-21T10:19:44.203Z,2.10
2018-12-21T10:22:14.025Z,2.27
2018-12-21T10:24:44.029Z,4.03
2018-12-21T10:27:13.844Z,6.57
2018-12-21T10:29:43.853Z,3.80
2018-12-21T10:32:13.870Z,4.63
2018-12-21T10:34:43.713Z,4.43
2018-12-21T10:37:13.602Z,5.30
2018-12-21T10:39:43.410Z,5.30
2018-12-21T10:42:13.324Z,5.10
2018-12-21T10:44:43.491Z,3.97
2018-12-21T10:47:13.489Z,5.23
2018-12-21T10:49:43.481Z,3.17
2018-12-21T10:52:13.420Z,4.77
2018-12-21T10:54:43.368Z,4.30
2018-12-21T10:57:13.358Z,3.43
2018-12-21T10:59:43.770Z,3.17
2018-12-21T11:02:13.768Z,2.37
2018-12-21T11:04:43.690Z,3.17
2018-12-21T11:07:13.498Z,1.67
2018-12-21T11:09:43.516Z,2.57
2018-12-21T11:12:13.461Z,2.57
2018-12-21T11:14:43.511Z,3.70
2018-12-21T11:17:13.315Z,3.50
2018-12-21T11:19:43.277Z,3.23
2018-12-21T11:22:13.225Z,3.13
2018-12-21T11:24:43.125Z,3.37
2018-12-21T11:27:13.328Z,2.53
2018-12-21T11:29:43.378Z,2.77
2018-12-21T11:32:13.284Z,3.77
2018-12-21T11:34:43.281Z,2.37
2018-12-21T11:37:13.223Z,2.40
2018-12-21T11:39:43.169Z,2.70
2018-12-21T11:42:13.155Z,2.47
2018-12-21T11:44:43.105Z,2.00
2018-12-21T11:47:13.064Z,1.87
2018-12-21T11:49:43.108Z,2.20
2018-12-21T11:52:13.052Z,1.43
2018-12-21T11:54:44.470Z,0.77
2018-12-21T11:57:14.560Z,2.30
2018-12-21T11:59:45.000Z,0.80
2018-12-21T12:02:19.531Z,0.80
2018-12-21T12:04:47.101Z,2.17
2018-12-21T12:07:17.121Z,2.20
2018-12-21T12:09:47.168Z,3.33
2018-12-21T12:12:16.981Z,1.13
2018-12-21T12:14:46.946Z,1.00
2018-12-21T12:17:16.868Z,1.40
2018-12-21T12:19:46.665Z,1.57
2018-12-21T12:22:16.682Z,1.30
2018-12-21T12:24:52.782Z,2.90
2018-12-21T12:27:18.797Z,0.83
2018-12-21T12:29:52.056Z,0.40
2018-12-21T12:32:23.027Z,1.40
2018-12-21T12:34:52.913Z,0.50
2018-12-21T12:37:22.860Z,0.80
2018-12-21T12:39:52.802Z,0.83
2018-12-21T12:42:23.508Z,0.37
2018-12-21T12:44:53.502Z,0.37
2018-12-21T12:47:23.716Z,0.67
2018-12-21T12:49:53.657Z,0.87
2018-12-21T12:52:23.649Z,3.50
2018-12-21T12:55:02.344Z,1.50
2018-12-21T12:57:25.662Z,0.73
2018-12-21T12:59:55.573Z,2.07
2018-12-21T13:02:25.596Z,1.37
2018-12-21T13:04:55.482Z,1.83
2018-12-21T13:07:25.392Z,0.30
2018-12-21T13:09:55.338Z,0.23
2018-12-21T13:12:25.221Z,1.40
2018-12-21T13:14:55.165Z,0.50
2018-12-21T13:17:25.125Z,1.40
2018-12-21T13:19:55.072Z,1.40
2018-12-21T13:22:24.904Z,1.50
2018-12-21T13:24:54.901Z,0.60
2018-12-21T13:27:24.818Z,2.17
2018-12-21T13:29:54.894Z,0.50
2018-12-21T13:32:24.878Z,0.90
2018-12-21T13:34:54.870Z,0.87
2018-12-21T13:37:24.785Z,1.53
2018-12-21T13:39:54.653Z,0.50
2018-12-21T13:42:26.829Z,0.47
2018-12-21T13:44:56.573Z,1.13
2018-12-21T13:47:26.650Z,0.50
2018-12-21T13:49:56.714Z,1.70
2018-12-21T13:52:26.657Z,1.37
2018-12-21T13:54:56.545Z,0.43
2018-12-21T13:57:26.563Z,0.90
2018-12-21T13:59:56.476Z,0.70
2018-12-21T14:02:26.390Z,0.63
2018-12-21T14:04:56.333Z,0.47
2018-12-21T14:07:26.321Z,1.20
2018-12-21T14:09:56.234Z,0.93
2018-12-21T14:12:26.181Z,0.33
2018-12-21T14:14:56.069Z,0.97
2018-12-21T14:17:25.981Z,0.30
2018-12-21T14:19:55.968Z,0.47
2018-12-21T14:22:25.914Z,0.27
2018-12-21T14:24:55.728Z,0.30
2018-12-21T14:27:25.745Z,0.30
2018-12-21T14:29:55.686Z,0.63
2018-12-21T14:32:25.581Z,0.47
2018-12-21T14:34:55.533Z,1.13
2018-12-21T14:37:25.428Z,0.53
2018-12-21T14:39:55.421Z,0.80
2018-12-21T14:42:25.435Z,1.53
2018-12-21T14:44:55.354Z,0.83
2018-12-21T14:47:25.271Z,1.90
2018-12-21T14:49:55.101Z,0.73
2018-12-21T14:52:25.217Z,0.43
2018-12-21T14:54:55.119Z,0.40
2018-12-21T14:57:25.033Z,0.40
2018-12-21T14:59:55.049Z,0.57
2018-12-21T15:02:24.860Z,0.40
2018-12-21T15:04:54.777Z,0.67
2018-12-21T15:07:24.726Z,0.53
2018-12-21T15:09:54.605Z,0.53
2018-12-21T15:12:24.592Z,1.80
2018-12-21T15:14:54.537Z,1.03
2018-12-21T15:17:24.482Z,3.40
2018-12-21T15:19:54.502Z,1.80
2018-12-21T15:22:24.485Z,1.97
2018-12-21T15:24:54.438Z,1.40
2018-12-21T15:27:24.330Z,0.70
2018-12-21T15:29:54.261Z,1.03
2018-12-21T15:32:24.150Z,2.67
2018-12-21T15:34:54.065Z,2.30
2018-12-21T15:37:23.876Z,2.77
2018-12-21T15:39:53.789Z,1.63
2018-12-21T15:42:23.733Z,1.80
2018-12-21T15:44:53.621Z,1.63
2018-12-21T15:47:23.539Z,0.97
2018-12-21T15:49:53.353Z,0.83
2018-12-21T15:52:23.265Z,1.53
2018-12-21T15:54:53.560Z,1.30
2018-12-21T15:57:23.421Z,1.20
2018-12-21T15:59:53.418Z,1.50
2018-12-21T16:02:23.439Z,1.63
2018-12-21T16:04:53.349Z,1.20
2018-12-21T16:07:23.300Z,1.20
2018-12-21T16:09:53.210Z,2.23
2018-12-21T16:12:23.230Z,2.03
2018-12-21T16:14:53.113Z,4.50
2018-12-21T16:17:23.028Z,1.80
2018-12-21T16:19:52.974Z,1.10
2018-12-21T16:22:22.857Z,1.83
2018-12-21T16:24:52.801Z,1.70
2018-12-21T16:27:22.689Z,2.83
2018-12-21T16:29:52.632Z,2.57
2018-12-21T16:32:22.649Z,2.90
2018-12-21T16:34:52.696Z,1.57
2018-12-21T16:37:22.761Z,1.93
2018-12-21T16:39:53.024Z,2.97
2018-12-21T16:42:23.004Z,2.63
2018-12-21T16:44:52.940Z,1.73
2018-12-21T16:47:22.885Z,2.20
2018-12-21T16:49:52.873Z,5.37
2018-12-21T16:52:22.890Z,13.37
2018-12-21T16:54:52.777Z,10.87
2018-12-21T16:57:22.805Z,3.00
2018-12-21T16:59:52.606Z,7.17
2018-12-21T17:02:22.520Z,2.70
2018-12-21T17:04:52.470Z,4.27
2018-12-21T17:07:22.461Z,2.93
2018-12-21T17:09:52.383Z,1.60
2018-12-21T17:12:22.209Z,2.13
2018-12-21T17:14:52.202Z,2.80
2018-12-21T17:17:22.218Z,2.37
2018-12-21T17:19:52.134Z,1.97
2018-12-21T17:22:22.051Z,1.60
2018-12-21T17:24:51.961Z,2.77
2018-12-21T17:27:21.985Z,1.40
2018-12-21T17:29:51.926Z,1.23
2018-12-21T17:32:22.225Z,2.60
2018-12-21T17:34:52.132Z,6.70
2018-12-21T17:37:22.177Z,3.20
2018-12-21T17:39:52.072Z,2.30
2018-12-21T17:42:21.984Z,2.73
2018-12-21T17:44:51.809Z,3.97
2018-12-21T17:47:21.709Z,2.93
2018-12-21T17:49:51.654Z,3.20
2018-12-21T17:52:21.640Z,3.43
2018-12-21T17:54:51.585Z,4.17
2018-12-21T17:57:21.676Z,2.13
2018-12-21T17:59:51.608Z,2.73
2018-12-21T18:02:21.521Z,2.60
2018-12-21T18:04:51.421Z,0.67
2018-12-21T18:07:21.232Z,2.87
2018-12-21T18:09:51.153Z,3.40
2018-12-21T18:12:20.961Z,2.57
2018-12-21T18:14:50.976Z,6.03
2018-12-21T18:17:20.929Z,4.37
2018-12-21T18:19:50.816Z,4.43
2018-12-21T18:22:22.599Z,6.47
2018-12-21T18:24:59.039Z,5.73
2018-12-21T18:27:30.309Z,6.00
2018-12-21T18:30:00.506Z,6.87
2018-12-21T18:32:33.245Z,7.43
2018-12-21T18:35:05.101Z,7.50
2018-12-21T18:37:39.493Z,10.37
2018-12-21T18:40:10.359Z,9.73
2018-12-21T18:42:40.245Z,6.03
2018-12-21T18:45:10.565Z,3.80
2018-12-21T18:47:40.559Z,7.80
2018-12-21T18:50:11.297Z,9.03
2018-12-21T18:52:41.238Z,10.73
2018-12-21T18:55:12.984Z,9.30
2018-12-21T18:57:43.289Z,8.47
2018-12-21T19:00:15.953Z,9.77
2018-12-21T19:02:45.840Z,9.30
2018-12-21T19:05:15.801Z,13.83
2018-12-21T19:07:45.753Z,17.13
2018-12-21T19:10:15.732Z,14.07
2018-12-21T19:12:45.677Z,11.80
2018-12-21T19:15:15.620Z,15.70
2018-12-21T19:17:46.515Z,12.10
2018-12-21T19:20:16.413Z,13.30
2018-12-21T19:22:46.362Z,16.57
2018-12-21T19:25:16.250Z,11.47
2018-12-21T19:27:46.265Z,14.87
2018-12-21T19:30:16.099Z,14.57
2018-12-21T19:32:46.097Z,11.83
2018-12-21T19:35:16.520Z,12.00
2018-12-21T19:37:46.569Z,13.00
2018-12-21T19:40:16.462Z,11.30
2018-12-21T19:42:46.401Z,11.13
2018-12-21T19:45:16.413Z,9.37
2018-12-21T19:47:46.409Z,12.77
2018-12-21T19:50:16.330Z,12.10
2018-12-21T19:52:46.245Z,13.63
2018-12-21T19:55:54.757Z,12.80
2018-12-21T19:58:24.778Z,15.73
2018-12-21T20:00:55.013Z,12.57
2018-12-21T20:03:25.280Z,11.87
2018-12-21T20:05:55.288Z,9.80
2018-12-21T20:08:27.334Z,9.00
2018-12-21T20:10:57.329Z,12.53
2018-12-21T20:13:27.238Z,10.83
2018-12-21T20:15:57.180Z,8.10
2018-12-21T20:18:27.215Z,10.80
2018-12-21T20:20:57.210Z,14.43
2018-12-21T20:23:27.150Z,11.37
2018-12-21T20:25:57.210Z,10.07
2018-12-21T20:28:27.136Z,10.87
2018-12-21T20:30:57.170Z,9.87
2018-12-21T20:33:27.573Z,10.53
2018-12-21T20:35:57.750Z,14.00
2018-12-21T20:38:28.742Z,15.50
2018-12-21T20:41:00.141Z,12.20
2018-12-21T20:43:30.080Z,16.13
2018-12-21T20:46:00.276Z,9.20
2018-12-21T20:48:31.261Z,19.17
2018-12-21T20:51:01.241Z,14.33
2018-12-21T20:53:31.250Z,14.33
2018-12-21T20:56:01.330Z,15.07
2018-12-21T20:58:49.837Z,15.87
2018-12-21T21:01:19.882Z,17.23
2018-12-21T21:03:49.830Z,14.87
2018-12-21T21:06:19.920Z,23.40
2018-12-21T21:08:51.015Z,15.13
2018-12-21T21:11:25.063Z,21.80
2018-12-21T21:13:52.937Z,16.40
2018-12-21T21:16:23.059Z,15.03
2018-12-21T21:18:53.117Z,17.20
2018-12-21T21:21:23.662Z,19.90
2018-12-21T21:23:53.626Z,15.90
2018-12-21T21:26:23.569Z,15.27
2018-12-21T21:28:53.481Z,20.40
2018-12-21T21:31:23.682Z,18.80
2018-12-21T21:33:53.721Z,15.00
2018-12-21T21:36:23.633Z,14.73
2018-12-21T21:38:53.626Z,25.30
2018-12-21T21:41:23.557Z,13.33
2018-12-21T21:43:53.510Z,16.23
2018-12-21T21:46:23.476Z,19.17
2018-12-21T21:48:53.418Z,22.83
2018-12-21T21:51:23.422Z,17.13
2018-12-21T21:53:53.349Z,15.33
2018-12-21T21:56:23.238Z,14.00
2018-12-21T21:58:53.525Z,14.57
2018-12-21T22:01:23.394Z,20.77
2018-12-21T22:03:53.385Z,16.27
2018-12-21T22:06:23.409Z,19.37
2018-12-21T22:08:53.376Z,15.30
2018-12-21T22:11:23.337Z,14.47
2018-12-21T22:13:53.257Z,15.57
2018-12-21T22:16:23.164Z,17.63
2018-12-21T22:18:53.108Z,18.20
2018-12-21T22:21:23.105Z,19.13
2018-12-21T22:23:52.921Z,23.33
2018-12-21T22:26:22.830Z,18.70
2018-12-21T22:28:52.874Z,21.40
2018-12-21T22:31:22.790Z,23.90
2018-12-21T22:33:53.090Z,20.73
2018-12-21T22:36:23.029Z,21.47
2018-12-21T22:38:52.970Z,28.13
2018-12-21T22:41:22.928Z,21.70
2018-12-21T22:43:52.741Z,19.30
2018-12-21T22:46:22.660Z,25.70
2018-12-21T22:48:52.687Z,29.20
2018-12-21T22:51:22.489Z,27.73
2018-12-21T22:53:52.432Z,23.20
2018-12-21T22:56:22.349Z,29.13
2018-12-21T22:58:52.333Z,25.37
2018-12-21T23:01:22.222Z,25.57
2018-12-21T23:03:52.169Z,24.17
2018-12-21T23:06:22.104Z,27.47
2018-12-21T23:08:51.994Z,26.30
2018-12-21T23:11:21.938Z,23.80
2018-12-21T23:13:52.232Z,25.77
2018-12-21T23:16:22.056Z,25.13
2018-12-21T23:18:52.165Z,22.73
2018-12-21T23:21:22.213Z,27.03
2018-12-21T23:23:52.155Z,28.03
2018-12-21T23:26:22.140Z,29.37
2018-12-21T23:28:52.042Z,20.77
2018-12-21T23:31:21.944Z,24.23
2018-12-21T23:33:51.890Z,25.43
2018-12-21T23:36:21.832Z,23.30
2018-12-21T23:38:52.771Z,29.37
2018-12-21T23:41:23.100Z,28.57
2018-12-21T23:43:53.088Z,23.17
2018-12-21T23:46:22.968Z,25.33
2018-12-21T23:48:52.989Z,21.17
2018-12-21T23:51:22.934Z,28.57
2018-12-21T23:53:52.750Z,26.63
2018-12-21T23:56:22.769Z,20.10
2018-12-21T23:58:54.397Z,25.27
